Entebbe, Uganda
Current Conditions -  °F | °C
As of 9:32 AM on Thursday 23 Oct 2014 (Local Time) from KQUD Reporting Station
Rain Showers Rain Showers  
Wind Chill: 70°   Ceiling: Unl
Heat Index: 70°   Visibility: 7mi
Dew Point: 66°   Wind: 1mph
Humidity: 88%   Direction: 210°SSW
Pressure: 30.29"   Gusts: NA
Location:  0.06°N, 32.46°E
Report Text: KQUD 230632Z AUTO 21001KT 7SM -SHRA FEW017 21/19 A3029 RMK AO2 LTG DSNT E SLP214
Loading
Personal Weather Stations






























Interactive Weather Map
Tropical Storm Tracking
New forecast layout! Learn more

10-Day Weather Forecast

Advertisements
Track Severe Weather on mobile